<?xml version="1.0" encoding="UTF-8" standalone="no" ?>
<gpx xmlns="http://www.topografix.com/GPX/1/1" xmlns:xsi="http://www.w3.org/2001/XMLSchema-instance" xsi:schemaLocation="http://www.topografix.com/GPX/1/1 http://www.topografix.com/GPX/1/1/gpx.xsd" version="1.1" creator="VisuGPX - https://www.visugpx.com">
  <metadata>
    <name>Rialle_Autour_8-22km</name>
    <desc><![CDATA[gnerando idor:6722432_8173011_8173016_12476141_12476155_12511586_12530915_12533090_13050648]]></desc>
  </metadata>
  <wpt lat="47.55079" lon="-1.37723">
    <ele>56.1</ele>
    <name><![CDATA[0000725]]></name>
    <type><![CDATA[Point de départ]]></type>
  </wpt>
  <wpt lat="47.52565" lon="-1.40637">
    <ele>31.3</ele>
    <name><![CDATA[0000726]]></name>
    <desc><![CDATA[<p><br /><h3>Nom: Segment: 1</h3><br />Heure de départ: 05/30/2021 09:30<br/>Heure d'arrivée: 05/30/2021 12:31<br/>Distance: 15,3km (03:00)<br/>Temps déplacement: 02:45<br/>Vitesse moyenne: 5,07 km/h<br/>Vitesse moyenne mouv.: 5,52 km/h<br/>Vitesse Max.: 20,75 km/h<br/>Altitude minimale: 29 m<br/>Altitude maximale: 61 m<br/>Vitesse de montée: 135,3 m/h<br/>Vitesse de descente: -132,1 m/h<br/>Gain d'altitude: 143 m<br/>Perte d'altitude: -165 m<br/>Temps de montée: 01:03<br/>Temps de descente: 01:15<br/></p>]]></desc>
    <type><![CDATA[Point d'arrivée]]></type>
  </wpt>
  <wpt lat="47.52578" lon="-1.40648">
    <ele>31.5</ele>
    <name><![CDATA[0000727]]></name>
    <type><![CDATA[Point de départ]]></type>
  </wpt>
  <wpt lat="47.55083" lon="-1.37712">
    <ele>56.4</ele>
    <name><![CDATA[0000728]]></name>
    <desc><![CDATA[<p><br /><h3>Nom: Segment: 2</h3><br />Heure de départ: 05/30/2021 13:12<br/>Heure d'arrivée: 05/30/2021 14:32<br/>Distance: 6,7km (01:19)<br/>Temps déplacement: 01:16<br/>Vitesse moyenne: 5,05 km/h<br/>Vitesse moyenne mouv.: 5,23 km/h<br/>Vitesse Max.: 8,06 km/h<br/>Altitude minimale: 34 m<br/>Altitude maximale: 68 m<br/>Vitesse de montée: 179 m/h<br/>Vitesse de descente: -145,6 m/h<br/>Gain d'altitude: 102 m<br/>Perte d'altitude: -77 m<br/>Temps de montée: 00:34<br/>Temps de descente: 00:32<br/></p>]]></desc>
    <type><![CDATA[Point d'arrivée]]></type>
  </wpt>
  <trk>
    <name><![CDATA[Riaille_OreeBois_11.8km-12476141]]></name>
    <extensions>
      <line xmlns="http://www.topografix.com/GPX/gpx_style/0/2">
        <color>000088</color>
        <width>4</width>
      </line>
    </extensions>
    <trkseg>
      <trkpt lat="47.51761" lon="-1.29222">
        <ele>38</ele>
        <time>2023-11-11T19:03:31Z</time>
      </trkpt>
      <trkpt lat="47.51745" lon="-1.29094">
        <ele>35</ele>
        <time>2023-11-11T19:05:28Z</time>
      </trkpt>
      <trkpt lat="47.51753" lon="-1.29047">
        <ele>34</ele>
        <time>2023-11-11T19:06:12Z</time>
      </trkpt>
      <trkpt lat="47.51798" lon="-1.29059">
        <ele>34</ele>
        <time>2023-11-11T19:07:13Z</time>
      </trkpt>
      <trkpt lat="47.51801" lon="-1.29014">
        <ele>32</ele>
        <time>2023-11-11T19:07:54Z</time>
      </trkpt>
      <trkpt lat="47.51797" lon="-1.28989">
        <ele>32</ele>
        <time>2023-11-11T19:08:17Z</time>
      </trkpt>
      <trkpt lat="47.51769" lon="-1.28967">
        <ele>31</ele>
        <time>2023-11-11T19:08:59Z</time>
      </trkpt>
      <trkpt lat="47.51779" lon="-1.28889">
        <ele>30</ele>
        <time>2023-11-11T19:10:11Z</time>
      </trkpt>
      <trkpt lat="47.51779" lon="-1.28889">
        <ele>30</ele>
        <time>2023-11-11T19:10:11Z</time>
      </trkpt>
      <trkpt lat="47.5196" lon="-1.2891">
        <ele>31</ele>
        <time>2023-11-11T19:14:13Z</time>
      </trkpt>
      <trkpt lat="47.51993" lon="-1.28933">
        <ele>30</ele>
        <time>2023-11-11T19:15:02Z</time>
      </trkpt>
      <trkpt lat="47.52092" lon="-1.28978">
        <ele>32</ele>
        <time>2023-11-11T19:17:20Z</time>
      </trkpt>
      <trkpt lat="47.52124" lon="-1.29036">
        <ele>34</ele>
        <time>2023-11-11T19:18:27Z</time>
      </trkpt>
      <trkpt lat="47.5216" lon="-1.29058">
        <ele>36</ele>
        <time>2023-11-11T19:19:19Z</time>
      </trkpt>
      <trkpt lat="47.52168" lon="-1.29047">
        <ele>36</ele>
        <time>2023-11-11T19:19:34Z</time>
      </trkpt>
      <trkpt lat="47.52199" lon="-1.28997">
        <ele>36</ele>
        <time>2023-11-11T19:20:35Z</time>
      </trkpt>
      <trkpt lat="47.52232" lon="-1.289">
        <ele>36</ele>
        <time>2023-11-11T19:22:13Z</time>
      </trkpt>
      <trkpt lat="47.52239" lon="-1.2887">
        <ele>36</ele>
        <time>2023-11-11T19:22:42Z</time>
      </trkpt>
      <trkpt lat="47.52238" lon="-1.28834">
        <ele>36</ele>
        <time>2023-11-11T19:23:14Z</time>
      </trkpt>
      <trkpt lat="47.52193" lon="-1.28548">
        <ele>42</ele>
        <time>2023-11-11T19:27:39Z</time>
      </trkpt>
      <trkpt lat="47.52197" lon="-1.28499">
        <ele>43</ele>
        <time>2023-11-11T19:28:23Z</time>
      </trkpt>
      <trkpt lat="47.52231" lon="-1.28278">
        <ele>45</ele>
        <time>2023-11-11T19:31:47Z</time>
      </trkpt>
      <trkpt lat="47.52279" lon="-1.28112">
        <ele>46</ele>
        <time>2023-11-11T19:34:30Z</time>
      </trkpt>
      <trkpt lat="47.52288" lon="-1.28099">
        <ele>46</ele>
        <time>2023-11-11T19:34:47Z</time>
      </trkpt>
      <trkpt lat="47.52288" lon="-1.28099">
        <ele>46</ele>
        <time>2023-11-11T19:34:47Z</time>
      </trkpt>
      <trkpt lat="47.52306" lon="-1.28096">
        <ele>46</ele>
        <time>2023-11-11T19:35:11Z</time>
      </trkpt>
      <trkpt lat="47.52433" lon="-1.28058">
        <ele>48</ele>
        <time>2023-11-11T19:38:04Z</time>
      </trkpt>
      <trkpt lat="47.52621" lon="-1.27993">
        <ele>48</ele>
        <time>2023-11-11T19:42:22Z</time>
      </trkpt>
      <trkpt lat="47.52621" lon="-1.27993">
        <ele>48</ele>
        <time>2023-11-11T19:42:22Z</time>
      </trkpt>
      <trkpt lat="47.52611" lon="-1.2787">
        <ele>49</ele>
        <time>2023-11-11T19:44:13Z</time>
      </trkpt>
      <trkpt lat="47.52587" lon="-1.27743">
        <ele>47</ele>
        <time>2023-11-11T19:46:12Z</time>
      </trkpt>
      <trkpt lat="47.52586" lon="-1.27684">
        <ele>46</ele>
        <time>2023-11-11T19:47:05Z</time>
      </trkpt>
      <trkpt lat="47.52586" lon="-1.27684">
        <ele>46</ele>
        <time>2023-11-11T19:47:05Z</time>
      </trkpt>
      <trkpt lat="47.52623" lon="-1.27529">
        <ele>47</ele>
        <time>2023-11-11T19:49:33Z</time>
      </trkpt>
      <trkpt lat="47.52727" lon="-1.27121">
        <ele>49</ele>
        <time>2023-11-11T19:56:06Z</time>
      </trkpt>
      <trkpt lat="47.52816" lon="-1.26788">
        <ele>53</ele>
        <time>2023-11-11T20:01:29Z</time>
      </trkpt>
      <trkpt lat="47.52816" lon="-1.26788">
        <ele>53</ele>
        <time>2023-11-11T20:01:29Z</time>
      </trkpt>
      <trkpt lat="47.52999" lon="-1.26877">
        <ele>57</ele>
        <time>2023-11-11T20:05:46Z</time>
      </trkpt>
      <trkpt lat="47.53066" lon="-1.26914">
        <ele>55</ele>
        <time>2023-11-11T20:07:22Z</time>
      </trkpt>
      <trkpt lat="47.53349" lon="-1.25797">
        <ele>58</ele>
        <time>2023-11-11T20:25:17Z</time>
      </trkpt>
      <trkpt lat="47.53788" lon="-1.26186">
        <ele>66</ele>
        <time>2023-11-11T20:36:39Z</time>
      </trkpt>
      <trkpt lat="47.53943" lon="-1.25965">
        <ele>72</ele>
        <time>2023-11-11T20:41:26Z</time>
      </trkpt>
      <trkpt lat="47.538" lon="-1.26188">
        <ele>66</ele>
        <time>2023-11-11T20:46:03Z</time>
      </trkpt>
      <trkpt lat="47.53271" lon="-1.27026">
        <ele>59</ele>
        <time>2023-11-11T21:03:17Z</time>
      </trkpt>
      <trkpt lat="47.53214" lon="-1.27114">
        <ele>60</ele>
        <time>2023-11-11T21:05:07Z</time>
      </trkpt>
      <trkpt lat="47.53165" lon="-1.27181">
        <ele>59</ele>
        <time>2023-11-11T21:06:36Z</time>
      </trkpt>
      <trkpt lat="47.53165" lon="-1.27181">
        <ele>59</ele>
        <time>2023-11-11T21:06:36Z</time>
      </trkpt>
      <trkpt lat="47.5316" lon="-1.27203">
        <ele>58</ele>
        <time>2023-11-11T21:06:57Z</time>
      </trkpt>
      <trkpt lat="47.53156" lon="-1.27277">
        <ele>58</ele>
        <time>2023-11-11T21:08:04Z</time>
      </trkpt>
      <trkpt lat="47.53148" lon="-1.27473">
        <ele>60</ele>
        <time>2023-11-11T21:11:01Z</time>
      </trkpt>
      <trkpt lat="47.53146" lon="-1.27481">
        <ele>60</ele>
        <time>2023-11-11T21:11:08Z</time>
      </trkpt>
      <trkpt lat="47.53128" lon="-1.27508">
        <ele>60</ele>
        <time>2023-11-11T21:11:42Z</time>
      </trkpt>
      <trkpt lat="47.53119" lon="-1.27529">
        <ele>60</ele>
        <time>2023-11-11T21:12:05Z</time>
      </trkpt>
      <trkpt lat="47.53093" lon="-1.27615">
        <ele>59</ele>
        <time>2023-11-11T21:13:30Z</time>
      </trkpt>
      <trkpt lat="47.53036" lon="-1.27756">
        <ele>60</ele>
        <time>2023-11-11T21:15:58Z</time>
      </trkpt>
      <trkpt lat="47.53008" lon="-1.27845">
        <ele>59</ele>
        <time>2023-11-11T21:17:26Z</time>
      </trkpt>
      <trkpt lat="47.52993" lon="-1.27883">
        <ele>58</ele>
        <time>2023-11-11T21:18:06Z</time>
      </trkpt>
      <trkpt lat="47.52993" lon="-1.27883">
        <ele>58</ele>
        <time>2023-11-11T21:18:06Z</time>
      </trkpt>
      <trkpt lat="47.52976" lon="-1.27966">
        <ele>55</ele>
        <time>2023-11-11T21:19:24Z</time>
      </trkpt>
      <trkpt lat="47.52972" lon="-1.28046">
        <ele>54</ele>
        <time>2023-11-11T21:20:36Z</time>
      </trkpt>
      <trkpt lat="47.52955" lon="-1.28199">
        <ele>54</ele>
        <time>2023-11-11T21:22:56Z</time>
      </trkpt>
      <trkpt lat="47.5293" lon="-1.28386">
        <ele>53</ele>
        <time>2023-11-11T21:25:48Z</time>
      </trkpt>
      <trkpt lat="47.5288" lon="-1.28836">
        <ele>51</ele>
        <time>2023-11-11T21:32:39Z</time>
      </trkpt>
      <trkpt lat="47.5288" lon="-1.28836">
        <ele>51</ele>
        <time>2023-11-11T21:32:39Z</time>
      </trkpt>
      <trkpt lat="47.53028" lon="-1.28765">
        <ele>54</ele>
        <time>2023-11-11T21:36:06Z</time>
      </trkpt>
      <trkpt lat="47.53073" lon="-1.28897">
        <ele>50</ele>
        <time>2023-11-11T21:38:20Z</time>
      </trkpt>
      <trkpt lat="47.53114" lon="-1.28997">
        <ele>48</ele>
        <time>2023-11-11T21:40:05Z</time>
      </trkpt>
      <trkpt lat="47.53151" lon="-1.2921">
        <ele>52</ele>
        <time>2023-11-11T21:43:23Z</time>
      </trkpt>
      <trkpt lat="47.53147" lon="-1.29239">
        <ele>52</ele>
        <time>2023-11-11T21:43:50Z</time>
      </trkpt>
      <trkpt lat="47.53164" lon="-1.29233">
        <ele>53</ele>
        <time>2023-11-11T21:44:13Z</time>
      </trkpt>
      <trkpt lat="47.53171" lon="-1.29258">
        <ele>53</ele>
        <time>2023-11-11T21:44:38Z</time>
      </trkpt>
      <trkpt lat="47.53173" lon="-1.29274">
        <ele>53</ele>
        <time>2023-11-11T21:44:52Z</time>
      </trkpt>
      <trkpt lat="47.53167" lon="-1.29307">
        <ele>53</ele>
        <time>2023-11-11T21:45:23Z</time>
      </trkpt>
      <trkpt lat="47.53158" lon="-1.29463">
        <ele>53</ele>
        <time>2023-11-11T21:47:44Z</time>
      </trkpt>
      <trkpt lat="47.53169" lon="-1.29653">
        <ele>54</ele>
        <time>2023-11-11T21:50:36Z</time>
      </trkpt>
      <trkpt lat="47.53165" lon="-1.29752">
        <ele>55</ele>
        <time>2023-11-11T21:52:05Z</time>
      </trkpt>
      <trkpt lat="47.53152" lon="-1.29838">
        <ele>53</ele>
        <time>2023-11-11T21:53:25Z</time>
      </trkpt>
      <trkpt lat="47.53126" lon="-1.29916">
        <ele>51</ele>
        <time>2023-11-11T21:54:43Z</time>
      </trkpt>
      <trkpt lat="47.53107" lon="-1.29997">
        <ele>50</ele>
        <time>2023-11-11T21:56:00Z</time>
      </trkpt>
      <trkpt lat="47.53092" lon="-1.30072">
        <ele>50</ele>
        <time>2023-11-11T21:57:11Z</time>
      </trkpt>
      <trkpt lat="47.53091" lon="-1.30105">
        <ele>50</ele>
        <time>2023-11-11T21:57:41Z</time>
      </trkpt>
      <trkpt lat="47.53103" lon="-1.30204">
        <ele>50</ele>
        <time>2023-11-11T21:59:11Z</time>
      </trkpt>
      <trkpt lat="47.53122" lon="-1.30286">
        <ele>50</ele>
        <time>2023-11-11T22:00:29Z</time>
      </trkpt>
      <trkpt lat="47.53136" lon="-1.30322">
        <ele>49</ele>
        <time>2023-11-11T22:01:07Z</time>
      </trkpt>
      <trkpt lat="47.53171" lon="-1.30389">
        <ele>48</ele>
        <time>2023-11-11T22:02:23Z</time>
      </trkpt>
      <trkpt lat="47.53212" lon="-1.30521">
        <ele>46</ele>
        <time>2023-11-11T22:04:34Z</time>
      </trkpt>
      <trkpt lat="47.53215" lon="-1.30556">
        <ele>46</ele>
        <time>2023-11-11T22:05:06Z</time>
      </trkpt>
      <trkpt lat="47.53215" lon="-1.30626">
        <ele>45</ele>
        <time>2023-11-11T22:06:09Z</time>
      </trkpt>
      <trkpt lat="47.53238" lon="-1.30643">
        <ele>45</ele>
        <time>2023-11-11T22:06:43Z</time>
      </trkpt>
      <trkpt lat="47.53238" lon="-1.30643">
        <ele>45</ele>
        <time>2023-11-11T22:06:43Z</time>
      </trkpt>
      <trkpt lat="47.53217" lon="-1.30661">
        <ele>45</ele>
        <time>2023-11-11T22:07:16Z</time>
      </trkpt>
      <trkpt lat="47.53167" lon="-1.30682">
        <ele>46</ele>
        <time>2023-11-11T22:08:25Z</time>
      </trkpt>
      <trkpt lat="47.53135" lon="-1.307">
        <ele>45</ele>
        <time>2023-11-11T22:09:11Z</time>
      </trkpt>
      <trkpt lat="47.53075" lon="-1.30717">
        <ele>45</ele>
        <time>2023-11-11T22:10:32Z</time>
      </trkpt>
      <trkpt lat="47.53057" lon="-1.30728">
        <ele>45</ele>
        <time>2023-11-11T22:10:58Z</time>
      </trkpt>
      <trkpt lat="47.53014" lon="-1.30759">
        <ele>45</ele>
        <time>2023-11-11T22:12:02Z</time>
      </trkpt>
      <trkpt lat="47.52991" lon="-1.30791">
        <ele>44</ele>
        <time>2023-11-11T22:12:44Z</time>
      </trkpt>
      <trkpt lat="47.52865" lon="-1.30685">
        <ele>46</ele>
        <time>2023-11-11T22:15:57Z</time>
      </trkpt>
      <trkpt lat="47.5283" lon="-1.30662">
        <ele>47</ele>
        <time>2023-11-11T22:16:48Z</time>
      </trkpt>
      <trkpt lat="47.52734" lon="-1.30634">
        <ele>46</ele>
        <time>2023-11-11T22:18:59Z</time>
      </trkpt>
      <trkpt lat="47.52701" lon="-1.30615">
        <ele>46</ele>
        <time>2023-11-11T22:19:46Z</time>
      </trkpt>
      <trkpt lat="47.52544" lon="-1.30462">
        <ele>48</ele>
        <time>2023-11-11T22:23:57Z</time>
      </trkpt>
      <trkpt lat="47.52259" lon="-1.30112">
        <ele>52</ele>
        <time>2023-11-11T22:32:11Z</time>
      </trkpt>
      <trkpt lat="47.5225" lon="-1.301">
        <ele>52</ele>
        <time>2023-11-11T22:32:27Z</time>
      </trkpt>
      <trkpt lat="47.52244" lon="-1.30077">
        <ele>52</ele>
        <time>2023-11-11T22:32:50Z</time>
      </trkpt>
      <trkpt lat="47.52244" lon="-1.30077">
        <ele>52</ele>
        <time>2023-11-11T22:32:50Z</time>
      </trkpt>
      <trkpt lat="47.52283" lon="-1.3009">
        <ele>52</ele>
        <time>2023-11-11T22:33:43Z</time>
      </trkpt>
      <trkpt lat="47.52283" lon="-1.3009">
        <ele>52</ele>
        <time>2023-11-11T22:33:43Z</time>
      </trkpt>
      <trkpt lat="47.52286" lon="-1.30082">
        <ele>52</ele>
        <time>2023-11-11T22:33:51Z</time>
      </trkpt>
      <trkpt lat="47.52339" lon="-1.30013">
        <ele>51</ele>
        <time>2023-11-11T22:35:25Z</time>
      </trkpt>
      <trkpt lat="47.52364" lon="-1.29951">
        <ele>50</ele>
        <time>2023-11-11T22:36:30Z</time>
      </trkpt>
      <trkpt lat="47.52198" lon="-1.29798">
        <ele>49</ele>
        <time>2023-11-11T22:40:51Z</time>
      </trkpt>
      <trkpt lat="47.52157" lon="-1.29799">
        <ele>50</ele>
        <time>2023-11-11T22:41:46Z</time>
      </trkpt>
      <trkpt lat="47.52154" lon="-1.29796">
        <ele>50</ele>
        <time>2023-11-11T22:41:51Z</time>
      </trkpt>
      <trkpt lat="47.52031" lon="-1.29371">
        <ele>41</ele>
        <time>2023-11-11T22:48:48Z</time>
      </trkpt>
      <trkpt lat="47.52031" lon="-1.29356">
        <ele>40</ele>
        <time>2023-11-11T22:49:01Z</time>
      </trkpt>
      <trkpt lat="47.52012" lon="-1.29349">
        <ele>40</ele>
        <time>2023-11-11T22:49:27Z</time>
      </trkpt>
      <trkpt lat="47.51853" lon="-1.29289">
        <ele>41</ele>
        <time>2023-11-11T22:53:06Z</time>
      </trkpt>
      <trkpt lat="47.51864" lon="-1.29239">
        <ele>40</ele>
        <time>2023-11-11T22:53:54Z</time>
      </trkpt>
      <trkpt lat="47.51869" lon="-1.29161">
        <ele>36</ele>
        <time>2023-11-11T22:55:04Z</time>
      </trkpt>
      <trkpt lat="47.51867" lon="-1.29128">
        <ele>35</ele>
        <time>2023-11-11T22:55:34Z</time>
      </trkpt>
      <trkpt lat="47.5186" lon="-1.29112">
        <ele>35</ele>
        <time>2023-11-11T22:55:51Z</time>
      </trkpt>
      <trkpt lat="47.5181" lon="-1.2911">
        <ele>35</ele>
        <time>2023-11-11T22:56:58Z</time>
      </trkpt>
      <trkpt lat="47.51797" lon="-1.29123">
        <ele>35</ele>
        <time>2023-11-11T22:57:19Z</time>
      </trkpt>
      <trkpt lat="47.51782" lon="-1.2921">
        <ele>38</ele>
        <time>2023-11-11T22:58:40Z</time>
      </trkpt>
      <trkpt lat="47.51772" lon="-1.2922">
        <ele>38</ele>
        <time>2023-11-11T22:58:56Z</time>
      </trkpt>
      <trkpt lat="47.51761" lon="-1.29222">
        <ele>38</ele>
        <time>2023-11-11T22:59:11Z</time>
      </trkpt>
    </trkseg>
  </trk>
</gpx>